File Libaries
Library: Programming - Directory: Programming - Other Magaz
blx11.lzh11K11576 03/16/91 Borlands Langauge Express Winter 91
blx12.lzh16K17223 08/14/91 Borlands Langauge Express Spring 91
blx13.lzh13K14056 11/08/91 TEdit/MDIEdit - Borland Lang Expr Summer 91
blx14.lzh60K61838 06/23/92 OV2 DLL / C Optimizing / C+ Templating
blx21.lzh63K64964 06/23/92 BC31 Benchmarks / OWL Printing / OV2 DLL
blx22.lzh417K427162 03/27/93 OleDemo / RapMan / OV2 DLL
cl-aug90.lzh39K40773 09/09/90 Source from Computer Language 08/90
cl-jan89.lzh309K317123 09/14/89 Source from Computer Language 01/89
cl-mar89.lzh99K102181 11/03/90 Source from Computer Language 03/89
comp9103.lzh117K119814 08/14/91 Comp.Compilers newsgroup
ct9406.lzh99K102193 02/25/95 C't Magazine Jun94
ct9407.lzh471K482828 02/25/95 C't Magazine Jul94
ct9408.lzh57K58715 02/25/95 C't Magazine Aug94
ct9412.lzh189K194084 02/25/95 C't Magazine Dec94
issue-51.lzh65K66686 06/04/90 Micro Cournacopia source issue 51
itcapr90.lzh5,648B5648 12/22/90 Inside Turbo C 04/90
itcaug90.lzh10K10864 12/22/90 Inside Turbo C 08/90
itcfeb90.lzh11K12091 12/22/90 Inside Turbo C 02/90
itcjan90.lzh7,792B7792 12/22/90 Inside Turbo C 01/90
itcjul90.lzh10K11159 12/22/90 Inside Turbo C 07/90
itcjun90.lzh9K10090 12/22/90 Inside Turbo C 06/90
itcmar90.lzh10K10363 12/22/90 Inside Turbo C 03/90
itcmay90.lzh8,832B8832 12/22/90 Inside Turbo C 05/90
pctj0686.lzh13K13631 09/14/89 Source from PC Tech 06/86
pctj0786.lzh13K13631 09/14/89 Source from PC Tech 07/86
pctj0886.lzh29K30122 09/14/89 Source from PC Tech 08/86
pctj100.lzh295K302422 09/14/89 Misc source from PC Tech
ttjlau88.lzh140K143373 11/03/90 Turbo Techniques Jul/Aug 88
ttnvdc87.lzh63K65270 11/03/90 Turbo Techniques Nov/Dec 87
ttspoc88.lzh42K43382 11/03/90 Turbo Techniques Sep/Oct 88
wddj9404.lzh155K158775 02/25/95 Windows/Dos Developer Apr94
wddj9405.lzh163K167770 02/25/95 Windows/Dos Developer May94
wddj9406.lzh76K78225 02/25/95 Windows/Dos Developer Jun94
wddj9407.lzh137K141137 02/25/95 Windows/Dos Developer Jul94
wddj9408.lzh71K73082 02/25/95 Windows/Dos Developer Aug94
wddj9409.lzh114K117036 02/25/95 Windows/Dos Developer Sep94
wtj0193.lzh51K53221 03/27/93 Marque / DumpLDT / Kiyooka
wtj0393.lzh115K118359 03/27/93 Cheat / Jitter / FlxMnu
wtj0592.lzh191K196458 06/23/92 Sound / VB DDE / WBtrieve interface / TPW Poker
wtj0692.lzh78K80150 06/23/92 MDIDemo / Play / VxD driver / Screen Saver
wtj0792.lzh50K52036 03/27/93 Skltn692 / Frames
wtj1192.lzh82K84158 03/27/93 Virtual / Capture
wtj1292.lzh22K23232 03/27/93 Virt